createdAt,value
2018-07-14T00:02:00.842Z,97316.00
2018-07-14T00:04:28.376Z,97317.09
2018-07-14T00:06:55.844Z,97310.41
2018-07-14T00:09:23.266Z,97307.94
2018-07-14T00:11:50.815Z,97313.30
2018-07-14T00:14:18.217Z,97318.08
2018-07-14T00:16:45.705Z,97315.83
2018-07-14T00:19:13.172Z,97320.41
2018-07-14T00:21:40.609Z,97321.02
2018-07-14T00:24:08.059Z,97322.51
2018-07-14T00:26:35.517Z,97315.32
2018-07-14T00:29:03.020Z,97322.01
2018-07-14T00:31:30.508Z,97316.23
2018-07-14T00:33:58.005Z,97320.35
2018-07-14T00:36:25.412Z,97320.03
2018-07-14T00:38:52.852Z,97323.66
2018-07-14T00:41:20.296Z,97327.88
2018-07-14T00:43:47.752Z,97337.64
2018-07-14T00:46:15.206Z,97340.25
2018-07-14T00:48:42.944Z,97341.34
2018-07-14T00:51:10.391Z,97337.83
2018-07-14T00:53:37.859Z,97340.78
2018-07-14T00:56:05.336Z,97337.27
2018-07-14T00:58:32.847Z,97341.05
2018-07-14T01:01:00.286Z,97348.20
2018-07-14T01:03:27.775Z,97350.73
2018-07-14T01:05:55.201Z,97354.47
2018-07-14T01:08:22.607Z,97347.48
2018-07-14T01:10:50.009Z,97348.48
2018-07-14T01:13:17.477Z,97353.64
2018-07-14T01:15:44.916Z,97345.14
2018-07-14T01:18:12.371Z,97343.03
2018-07-14T01:20:39.799Z,97347.80
2018-07-14T01:23:07.395Z,97343.97
2018-07-14T01:25:34.945Z,97345.55
2018-07-14T01:28:02.419Z,97347.36
2018-07-14T01:30:29.945Z,97353.19
2018-07-14T01:32:57.390Z,97343.41
2018-07-14T01:35:24.820Z,97338.95
2018-07-14T01:37:52.258Z,97329.36
2018-07-14T01:40:19.736Z,97331.45
2018-07-14T01:42:47.175Z,97331.27
2018-07-14T01:45:14.947Z,97329.77
2018-07-14T01:47:42.406Z,97333.01
2018-07-14T01:50:09.896Z,97341.46
2018-07-14T01:52:37.371Z,97343.97
2018-07-14T01:55:04.874Z,97338.20
2018-07-14T01:57:32.414Z,97341.69
2018-07-14T01:59:59.831Z,97333.61
2018-07-14T02:02:27.308Z,97333.41
2018-07-14T02:04:54.825Z,97330.98
2018-07-14T02:07:22.360Z,97328.81
2018-07-14T02:09:49.805Z,97329.48
2018-07-14T02:12:17.234Z,97323.03
2018-07-14T02:14:44.679Z,97331.91
2018-07-14T02:17:12.345Z,97328.81
2018-07-14T02:19:39.804Z,97332.73
2018-07-14T02:22:07.262Z,97331.48
2018-07-14T02:24:34.720Z,97336.73
2018-07-14T02:27:02.136Z,97333.32
2018-07-14T02:29:29.568Z,97342.25
2018-07-14T02:31:56.971Z,97348.73
2018-07-14T02:34:24.430Z,97339.13
2018-07-14T02:36:51.878Z,97342.65
2018-07-14T02:39:19.344Z,97335.05
2018-07-14T02:41:46.776Z,97340.83
2018-07-14T02:44:15.058Z,97341.81
2018-07-14T02:46:42.564Z,97339.81
2018-07-14T02:49:10.048Z,97336.30
2018-07-14T02:51:37.506Z,97336.11
2018-07-14T02:54:04.948Z,97341.28
2018-07-14T02:56:32.400Z,97342.95
2018-07-14T02:58:59.881Z,97346.34
2018-07-14T03:01:27.278Z,97357.94
2018-07-14T03:03:54.761Z,97355.66
2018-07-14T03:06:22.282Z,97354.03
2018-07-14T03:08:49.728Z,97352.75
2018-07-14T03:11:17.202Z,97351.25
2018-07-14T03:13:44.850Z,97356.56
2018-07-14T03:16:12.331Z,97355.05
2018-07-14T03:18:39.753Z,97360.77
2018-07-14T03:21:07.270Z,97360.64
2018-07-14T03:23:34.720Z,97360.35
2018-07-14T03:26:02.144Z,97359.52
2018-07-14T03:28:29.643Z,97357.54
2018-07-14T03:30:57.038Z,97358.55
2018-07-14T03:35:58.223Z,97363.84
2018-07-14T03:38:25.684Z,97367.70
2018-07-14T03:40:53.178Z,97368.27
2018-07-14T03:43:20.673Z,97368.86
2018-07-14T03:45:48.157Z,97367.38
2018-07-14T03:48:15.611Z,97370.70
2018-07-14T03:50:43.054Z,97368.09
2018-07-14T03:53:10.488Z,97367.58
2018-07-14T03:55:37.922Z,97362.88
2018-07-14T03:58:05.339Z,97361.00
2018-07-14T04:00:32.775Z,97358.52
2018-07-14T04:03:00.258Z,97362.40
2018-07-14T04:05:27.755Z,97363.85
2018-07-14T04:07:55.164Z,97368.69
2018-07-14T04:10:22.614Z,97366.28
2018-07-14T04:12:50.013Z,97370.81
2018-07-14T04:15:17.497Z,97362.34
2018-07-14T04:17:44.971Z,97360.00
2018-07-14T04:20:12.565Z,97356.30
2018-07-14T04:22:39.997Z,97357.95
2018-07-14T04:25:07.477Z,97360.03
2018-07-14T04:27:34.956Z,97355.41
2018-07-14T04:30:02.443Z,97350.02
2018-07-14T04:32:29.890Z,97349.75
2018-07-14T04:34:57.352Z,97355.02
2018-07-14T04:37:24.830Z,97351.73
2018-07-14T04:39:52.372Z,97352.34
2018-07-14T04:42:19.907Z,97354.77
2018-07-14T04:44:47.424Z,97350.08
2018-07-14T04:47:14.872Z,97352.42
2018-07-14T04:49:42.316Z,97358.84
2018-07-14T04:52:09.814Z,97359.22
2018-07-14T04:54:37.249Z,97350.88
2018-07-14T04:57:04.748Z,97352.91
2018-07-14T04:59:32.177Z,97344.02
2018-07-14T05:01:59.582Z,97344.86
2018-07-14T05:04:27.076Z,97349.23
2018-07-14T05:06:54.560Z,97351.81
2018-07-14T05:09:21.959Z,97354.02
2018-07-14T05:11:49.417Z,97353.59
2018-07-14T05:14:16.822Z,97347.28
2018-07-14T05:16:44.271Z,97353.63
2018-07-14T05:19:11.745Z,97353.00
2018-07-14T05:21:39.230Z,97354.50
2018-07-14T05:24:06.733Z,97353.30
2018-07-14T05:26:34.176Z,97358.66
2018-07-14T05:29:01.623Z,97359.17
2018-07-14T05:31:29.061Z,97357.83
2018-07-14T05:33:56.511Z,97350.63
2018-07-14T05:36:23.914Z,97363.26
2018-07-14T05:38:51.346Z,97358.72
2018-07-14T05:41:18.847Z,97355.03
2018-07-14T05:43:46.386Z,97359.48
2018-07-14T05:46:13.857Z,97361.39
2018-07-14T05:48:41.328Z,97367.92
2018-07-14T05:51:08.761Z,97363.84
2018-07-14T05:53:36.201Z,97366.82
2018-07-14T05:56:03.670Z,97361.53
2018-07-14T05:58:31.136Z,97361.52
2018-07-14T06:00:58.718Z,97363.01
2018-07-14T06:03:26.458Z,97359.41
2018-07-14T06:05:53.974Z,97358.48
2018-07-14T06:08:21.423Z,97361.77
2018-07-14T06:10:48.901Z,97358.64
2018-07-14T06:13:17.273Z,97362.09
2018-07-14T06:15:44.686Z,97360.64
2018-07-14T06:18:12.128Z,97368.98
2018-07-14T06:20:39.608Z,97368.22
2018-07-14T06:23:07.077Z,97365.12
2018-07-14T06:25:34.908Z,97365.06
2018-07-14T06:28:02.382Z,97362.22
2018-07-14T06:30:29.821Z,97360.15
2018-07-14T06:32:57.269Z,97358.59
2018-07-14T06:35:24.694Z,97359.81
2018-07-14T06:37:52.159Z,97357.30
2018-07-14T06:40:19.562Z,97356.86
2018-07-14T06:42:47.013Z,97362.20
2018-07-14T06:45:14.470Z,97360.64
2018-07-14T06:47:43.864Z,97357.00
2018-07-14T06:50:11.340Z,97358.17
2018-07-14T06:52:38.818Z,97358.31
2018-07-14T06:55:06.226Z,97359.28
2018-07-14T06:57:33.875Z,97359.37
2018-07-14T07:00:01.362Z,97357.75
2018-07-14T07:02:28.900Z,97360.62
2018-07-14T07:04:56.398Z,97361.03
2018-07-14T07:07:23.881Z,97365.84
2018-07-14T07:09:51.310Z,97362.86
2018-07-14T07:12:18.823Z,97370.66
2018-07-14T07:14:46.242Z,97367.77
2018-07-14T07:17:13.695Z,97358.75
2018-07-14T07:19:41.167Z,97352.59
2018-07-14T07:22:08.680Z,97359.52
2018-07-14T07:24:36.132Z,97357.83
2018-07-14T07:27:03.595Z,97352.77
2018-07-14T07:29:30.982Z,97354.89
2018-07-14T07:31:58.467Z,97353.05
2018-07-14T07:34:25.895Z,97350.59
2018-07-14T07:36:54.054Z,97345.78
2018-07-14T07:39:21.453Z,97341.97
2018-07-14T07:41:48.962Z,97349.52
2018-07-14T07:44:16.409Z,97347.98
2018-07-14T07:46:43.906Z,97340.52
2018-07-14T07:49:11.380Z,97340.87
2018-07-14T07:51:38.834Z,97340.76
2018-07-14T07:54:06.341Z,97340.05
2018-07-14T07:56:33.791Z,97337.96
2018-07-14T07:59:01.226Z,97337.18
2018-07-14T08:01:28.855Z,97336.16
2018-07-14T08:03:56.303Z,97336.99
2018-07-14T08:06:23.778Z,97338.86
2018-07-14T08:08:51.286Z,97332.09
2018-07-14T08:11:18.730Z,97324.64
2018-07-14T08:13:46.250Z,97322.97
2018-07-14T08:16:13.846Z,97325.23
2018-07-14T08:18:41.218Z,97325.56
2018-07-14T08:21:08.703Z,97322.67
2018-07-14T08:23:36.158Z,97321.15
2018-07-14T08:26:03.600Z,97323.26
2018-07-14T08:28:31.060Z,97326.42
2018-07-14T08:30:58.497Z,97322.24
2018-07-14T08:33:25.930Z,97327.66
2018-07-14T08:35:53.412Z,97323.88
2018-07-14T08:38:20.892Z,97328.94
2018-07-14T08:40:48.406Z,97327.14
2018-07-14T08:43:15.872Z,97320.34
2018-07-14T08:45:43.344Z,97324.86
2018-07-14T08:48:10.749Z,97319.66
2018-07-14T08:50:38.220Z,97308.87
2018-07-14T08:53:05.701Z,97316.80
2018-07-14T08:55:33.141Z,97317.87
2018-07-14T08:58:00.916Z,97313.42
2018-07-14T09:00:28.442Z,97308.64
2018-07-14T09:02:56.035Z,97298.77
2018-07-14T09:05:23.619Z,97304.78
2018-07-14T09:07:51.052Z,97302.65
2018-07-14T09:10:18.550Z,97311.73
2018-07-14T09:12:46.025Z,97308.23
2018-07-14T09:15:13.512Z,97303.20
2018-07-14T09:17:40.942Z,97300.03
2018-07-14T09:20:08.495Z,97295.67
2018-07-14T09:22:36.055Z,97293.48
2018-07-14T09:25:03.555Z,97295.25
2018-07-14T09:27:31.065Z,97296.58
2018-07-14T09:29:58.549Z,97293.06
2018-07-14T09:32:26.065Z,97298.50
2018-07-14T09:34:53.524Z,97295.67
2018-07-14T09:37:21.044Z,97297.75
2018-07-14T09:39:48.595Z,97294.05
2018-07-14T09:42:15.998Z,97287.48
2018-07-14T09:44:43.046Z,97286.50
2018-07-14T09:47:10.071Z,97280.92
2018-07-14T09:49:37.184Z,97280.63
2018-07-14T09:52:04.437Z,97281.06
2018-07-14T09:54:31.444Z,97283.98
2018-07-14T09:56:58.511Z,97275.72
2018-07-14T09:59:26.010Z,97273.16
2018-07-14T10:01:53.166Z,97272.95
2018-07-14T10:04:20.519Z,97267.20
2018-07-14T10:06:48.055Z,97272.22
2018-07-14T10:09:15.077Z,97264.31
2018-07-14T10:11:42.104Z,97263.94
2018-07-14T10:14:09.735Z,97259.96
2018-07-14T10:16:36.859Z,97256.05
2018-07-14T10:19:04.221Z,97247.78
2018-07-14T10:21:31.434Z,97246.76
2018-07-14T10:23:58.418Z,97240.58
2018-07-14T10:26:25.564Z,97240.08
2018-07-14T10:28:52.753Z,97241.73
2018-07-14T10:31:19.782Z,97241.09
2018-07-14T10:33:46.774Z,97231.58
2018-07-14T10:36:13.836Z,97231.77
2018-07-14T10:38:40.917Z,97224.52
2018-07-14T10:41:07.871Z,97218.80
2018-07-14T10:43:34.884Z,97218.58
2018-07-14T10:46:02.089Z,97216.21
2018-07-14T10:48:29.124Z,97217.40
2018-07-14T10:50:56.181Z,97214.06
2018-07-14T10:53:23.353Z,97213.67
2018-07-14T10:55:50.417Z,97207.91
2018-07-14T10:58:17.359Z,97207.31
2018-07-14T11:00:44.502Z,97211.73
2018-07-14T11:03:11.457Z,97220.45
2018-07-14T11:05:39.478Z,97211.05
2018-07-14T11:08:06.532Z,97210.36
2018-07-14T11:10:33.745Z,97206.89
2018-07-14T11:13:01.212Z,97200.06
2018-07-14T11:15:28.647Z,97200.25
2018-07-14T11:17:56.210Z,97198.05
2018-07-14T11:20:23.678Z,97202.99
2018-07-14T11:22:51.132Z,97198.39
2018-07-14T11:25:18.605Z,97193.95
2018-07-14T11:27:46.062Z,97193.57
2018-07-14T11:30:13.581Z,97188.63
2018-07-14T11:32:41.072Z,97191.77
2018-07-14T11:35:08.511Z,97196.91
2018-07-14T11:37:35.959Z,97194.95
2018-07-14T11:40:03.359Z,97190.44
2018-07-14T11:42:30.853Z,97187.02
2018-07-14T11:44:58.299Z,97188.19
2018-07-14T11:47:25.812Z,97187.47
2018-07-14T11:49:53.281Z,97185.17
2018-07-14T11:52:20.843Z,97182.47
2018-07-14T11:54:48.333Z,97176.41
2018-07-14T11:57:15.803Z,97173.30
2018-07-14T11:59:43.586Z,97170.52
2018-07-14T12:02:11.087Z,97176.31
2018-07-14T12:04:38.499Z,97171.22
2018-07-14T12:07:05.990Z,97174.77
2018-07-14T12:09:33.492Z,97173.30
2018-07-14T12:12:01.025Z,97168.96
2018-07-14T12:14:28.514Z,97169.60
2018-07-14T12:16:55.962Z,97164.58
2018-07-14T12:19:23.440Z,97159.95
2018-07-14T12:21:50.997Z,97159.63
2018-07-14T12:24:18.467Z,97157.64
2018-07-14T12:26:46.025Z,97156.41
2018-07-14T12:29:13.471Z,97155.05
2018-07-14T12:31:40.931Z,97146.52
2018-07-14T12:34:08.477Z,97143.44
2018-07-14T12:36:35.960Z,97143.34
2018-07-14T12:39:03.375Z,97152.61
2018-07-14T12:41:31.984Z,97144.50
2018-07-14T12:43:59.471Z,97139.47
2018-07-14T12:46:27.125Z,97142.46
2018-07-14T12:48:54.640Z,97144.34
2018-07-14T12:51:22.252Z,97144.19
2018-07-14T12:53:49.750Z,97140.48
2018-07-14T12:56:17.184Z,97140.22
2018-07-14T12:58:44.698Z,97137.30
2018-07-14T13:01:12.922Z,97136.08
2018-07-14T13:03:40.407Z,97141.00
2018-07-14T13:06:08.180Z,97137.63
2018-07-14T13:08:35.702Z,97129.17
2018-07-14T13:11:03.214Z,97131.73
2018-07-14T13:13:30.689Z,97130.09
2018-07-14T13:15:58.180Z,97126.25
2018-07-14T13:18:25.655Z,97138.23
2018-07-14T13:20:53.097Z,97136.94
2018-07-14T13:23:20.712Z,97131.06
2018-07-14T13:25:48.252Z,97132.45
2018-07-14T13:28:15.716Z,97135.13
2018-07-14T13:30:43.162Z,97121.52
2018-07-14T13:33:10.616Z,97119.48
2018-07-14T13:35:38.081Z,97113.09
2018-07-14T13:38:05.497Z,97109.17
2018-07-14T13:40:32.929Z,97104.24
2018-07-14T13:43:00.421Z,97095.11
2018-07-14T13:45:27.969Z,97096.60
2018-07-14T13:47:55.421Z,97095.25
2018-07-14T13:50:22.877Z,97100.45
2018-07-14T13:52:50.357Z,97101.81
2018-07-14T13:55:18.074Z,97106.69
2018-07-14T13:57:45.570Z,97109.31
2018-07-14T14:00:13.022Z,97102.94
2018-07-14T14:02:40.470Z,97106.70
2018-07-14T14:05:07.915Z,97108.81
2018-07-14T14:07:35.354Z,97102.33
2018-07-14T14:10:02.889Z,97105.09
2018-07-14T14:12:30.359Z,97095.47
2018-07-14T14:14:57.844Z,97094.61
2018-07-14T14:17:25.342Z,97090.80
2018-07-14T14:19:52.816Z,97102.39
2018-07-14T14:22:20.243Z,97102.44
2018-07-14T14:24:47.649Z,97096.77
2018-07-14T14:27:15.108Z,97086.02
2018-07-14T14:29:42.625Z,97094.47
2018-07-14T14:32:10.047Z,97091.56
2018-07-14T14:34:37.446Z,97100.27
2018-07-14T14:37:04.895Z,97093.66
2018-07-14T14:39:32.518Z,97098.08
2018-07-14T14:41:59.918Z,97093.92
2018-07-14T14:44:27.338Z,97093.31
2018-07-14T14:46:54.782Z,97088.66
2018-07-14T14:49:22.255Z,97097.61
2018-07-14T14:51:49.694Z,97099.38
2018-07-14T14:54:17.102Z,97100.96
2018-07-14T14:56:44.661Z,97094.60
2018-07-14T14:59:12.120Z,97099.99
2018-07-14T15:01:39.525Z,97100.30
2018-07-14T15:04:06.947Z,97101.39
2018-07-14T15:06:34.429Z,97106.45
2018-07-14T15:09:01.956Z,97118.57
2018-07-14T15:11:29.393Z,97116.52
2018-07-14T15:13:56.912Z,97113.80
2018-07-14T15:16:25.042Z,97108.39
2018-07-14T15:18:52.489Z,97123.41
2018-07-14T15:21:20.013Z,97116.37
2018-07-14T15:23:47.567Z,97108.50
2018-07-14T15:26:15.051Z,97102.69
2018-07-14T15:28:42.497Z,97115.23
2018-07-14T15:31:09.926Z,97112.07
2018-07-14T15:33:37.569Z,97104.02
2018-07-14T15:36:04.972Z,97109.86
2018-07-14T15:38:32.523Z,97112.69
2018-07-14T15:40:59.989Z,97106.27
2018-07-14T15:43:27.465Z,97098.70
2018-07-14T15:45:54.990Z,97101.28
2018-07-14T15:48:22.472Z,97101.78
2018-07-14T15:50:49.902Z,97098.17
2018-07-14T15:53:17.368Z,97110.17
2018-07-14T15:55:44.893Z,97114.70
2018-07-14T15:58:12.369Z,97109.52
2018-07-14T16:00:39.808Z,97096.03
2018-07-14T16:03:07.233Z,97090.58
2018-07-14T16:05:34.668Z,97075.88
2018-07-14T16:08:02.206Z,97072.03
2018-07-14T16:10:29.614Z,97063.94
2018-07-14T16:12:57.055Z,97070.69
2018-07-14T16:15:24.479Z,97081.98
2018-07-14T16:17:51.972Z,97088.67
2018-07-14T16:20:19.499Z,97097.13
2018-07-14T16:22:46.949Z,97100.09
2018-07-14T16:25:14.391Z,97089.39
2018-07-14T16:27:41.840Z,97091.73
2018-07-14T16:30:09.310Z,97087.30
2018-07-14T16:32:36.774Z,97086.39
2018-07-14T16:35:04.235Z,97081.03
2018-07-14T16:37:31.704Z,97075.91
2018-07-14T16:39:59.142Z,97086.42
2018-07-14T16:42:26.607Z,97089.08
2018-07-14T16:44:54.033Z,97082.70
2018-07-14T16:47:21.509Z,97079.08
2018-07-14T16:49:49.009Z,97077.95
2018-07-14T16:52:16.839Z,97079.04
2018-07-14T16:54:44.264Z,97067.84
2018-07-14T16:57:11.802Z,97077.44
2018-07-14T16:59:39.282Z,97072.39
2018-07-14T17:02:06.710Z,97076.20
2018-07-14T17:04:34.163Z,97071.68
2018-07-14T17:07:01.608Z,97070.89
2018-07-14T17:09:29.063Z,97086.39
2018-07-14T17:11:56.511Z,97090.32
2018-07-14T17:14:24.020Z,97101.45
2018-07-14T17:16:51.534Z,97104.84
2018-07-14T17:19:18.970Z,97104.28
2018-07-14T17:21:46.632Z,97111.14
2018-07-14T17:24:14.074Z,97108.75
2018-07-14T17:26:41.535Z,97116.34
2018-07-14T17:29:08.968Z,97113.73
2018-07-14T17:31:36.465Z,97114.53
2018-07-14T17:34:03.941Z,97120.66
2018-07-14T17:36:31.358Z,97123.66
2018-07-14T17:38:58.829Z,97127.08
2018-07-14T17:41:26.292Z,97120.10
2018-07-14T17:43:53.808Z,97114.11
2018-07-14T17:46:21.280Z,97107.42
2018-07-14T17:48:48.788Z,97111.33
2018-07-14T17:51:16.184Z,97117.30
2018-07-14T17:53:43.583Z,97110.41
2018-07-14T17:56:11.050Z,97113.72
2018-07-14T17:58:38.614Z,97105.00
2018-07-14T18:01:06.023Z,97114.42
2018-07-14T18:03:33.517Z,97112.72
2018-07-14T18:06:00.934Z,97120.16
2018-07-14T18:08:28.386Z,97117.59
2018-07-14T18:10:55.877Z,97112.78
2018-07-14T18:13:23.296Z,97116.84
2018-07-14T18:15:50.920Z,97108.58
2018-07-14T18:18:18.492Z,97121.43
2018-07-14T18:20:45.928Z,97126.34
2018-07-14T18:23:13.459Z,97132.82
2018-07-14T18:25:40.983Z,97126.70
2018-07-14T18:28:08.476Z,97121.16
2018-07-14T18:30:35.906Z,97127.28
2018-07-14T18:33:03.329Z,97136.42
2018-07-14T18:35:30.781Z,97136.67
2018-07-14T18:37:58.395Z,97122.75
2018-07-14T18:40:25.839Z,97115.62
2018-07-14T18:42:53.335Z,97112.37
2018-07-14T18:45:20.811Z,97114.70
2018-07-14T18:47:48.271Z,97116.95
2018-07-14T18:50:15.694Z,97141.00
2018-07-14T18:52:43.216Z,97150.80
2018-07-14T18:55:10.600Z,97167.69
2018-07-14T18:57:38.066Z,97177.22
2018-07-14T19:00:05.501Z,97171.47
2018-07-14T19:02:32.940Z,97157.08
2018-07-14T19:05:00.446Z,97160.07
2018-07-14T19:07:27.832Z,97164.80
2018-07-14T19:09:55.307Z,97171.77
2018-07-14T19:12:22.819Z,97169.38
2018-07-14T19:14:50.270Z,97170.95
2018-07-14T19:17:17.739Z,97180.84
2018-07-14T19:19:45.207Z,97182.12
2018-07-14T19:22:12.681Z,97190.66
2018-07-14T19:24:40.157Z,97192.61
2018-07-14T19:27:07.580Z,97197.04
2018-07-14T19:29:35.038Z,97183.95
2018-07-14T19:32:02.468Z,97176.52
2018-07-14T19:34:29.928Z,97174.02
2018-07-14T19:36:58.362Z,97175.92
2018-07-14T19:39:25.859Z,97189.11
2018-07-14T19:41:53.294Z,97191.22
2018-07-14T19:44:20.720Z,97191.54
2018-07-14T19:46:48.189Z,97188.31
2018-07-14T19:49:15.641Z,97195.44
2018-07-14T19:51:43.381Z,97208.76
2018-07-14T19:54:10.883Z,97217.81
2018-07-14T19:56:38.331Z,97224.59
2018-07-14T19:59:05.890Z,97232.48
2018-07-14T20:01:33.407Z,97237.56
2018-07-14T20:04:01.136Z,97243.16
2018-07-14T20:06:28.695Z,97239.32
2018-07-14T20:08:56.103Z,97234.08
2018-07-14T20:11:24.503Z,97230.31
2018-07-14T20:13:52.111Z,97236.56
2018-07-14T20:16:19.549Z,97238.91
2018-07-14T20:18:47.150Z,97251.91
2018-07-14T20:21:14.542Z,97251.98
2018-07-14T20:23:41.952Z,97257.84
2018-07-14T20:26:09.362Z,97239.09
2018-07-14T20:28:36.864Z,97240.92
2018-07-14T20:31:04.377Z,97240.27
2018-07-14T20:33:31.976Z,97253.30
2018-07-14T20:35:59.449Z,97239.45
2018-07-14T20:38:27.070Z,97251.93
2018-07-14T20:40:54.471Z,97246.23
2018-07-14T20:43:21.935Z,97243.85
2018-07-14T20:45:49.467Z,97254.30
2018-07-14T20:48:16.996Z,97255.14
2018-07-14T20:50:44.470Z,97260.52
2018-07-14T20:53:12.032Z,97254.17
2018-07-14T20:55:39.467Z,97258.27
2018-07-14T20:58:07.054Z,97251.77
2018-07-14T21:00:34.467Z,97247.25
2018-07-14T21:03:01.971Z,97253.09
2018-07-14T21:05:29.415Z,97250.58
2018-07-14T21:07:56.911Z,97246.91
2018-07-14T21:10:24.337Z,97243.86
2018-07-14T21:12:51.784Z,97251.88
2018-07-14T21:15:19.263Z,97254.50
2018-07-14T21:17:46.882Z,97250.92
2018-07-14T21:20:14.383Z,97247.25
2018-07-14T21:22:41.807Z,97244.99
2018-07-14T21:25:09.290Z,97236.98
2018-07-14T21:27:36.828Z,97239.33
2018-07-14T21:30:04.304Z,97244.50
2018-07-14T21:32:31.745Z,97261.59
2018-07-14T21:34:59.171Z,97256.00
2018-07-14T21:37:26.631Z,97262.18
2018-07-14T21:39:54.147Z,97255.69
2018-07-14T21:42:21.679Z,97249.59
2018-07-14T21:44:49.111Z,97254.91
2018-07-14T21:47:16.545Z,97254.67
2018-07-14T21:49:43.935Z,97260.16
2018-07-14T21:52:11.357Z,97247.67
2018-07-14T21:54:38.774Z,97252.41
2018-07-14T21:57:06.210Z,97246.82
2018-07-14T21:59:33.623Z,97255.48
2018-07-14T22:02:01.063Z,97253.48
2018-07-14T22:04:28.498Z,97249.55
2018-07-14T22:06:55.953Z,97249.22
2018-07-14T22:09:23.516Z,97248.48
2018-07-14T22:11:51.000Z,97253.56
2018-07-14T22:14:18.401Z,97249.73
2018-07-14T22:16:45.843Z,97252.91
2018-07-14T22:19:13.328Z,97251.89
2018-07-14T22:21:40.754Z,97258.04
2018-07-14T22:24:08.416Z,97261.70
2018-07-14T22:26:35.926Z,97262.39
2018-07-14T22:29:03.406Z,97261.53
2018-07-14T22:31:30.831Z,97259.03
2018-07-14T22:33:58.435Z,97266.44
2018-07-14T22:36:25.920Z,97261.88
2018-07-14T22:38:53.408Z,97263.45
2018-07-14T22:41:20.888Z,97263.38
2018-07-14T22:43:48.458Z,97262.64
2018-07-14T22:46:15.868Z,97259.82
2018-07-14T22:48:43.304Z,97267.39
2018-07-14T22:51:10.767Z,97261.64
2018-07-14T22:53:38.301Z,97262.23
2018-07-14T22:56:05.728Z,97258.22
2018-07-14T22:58:33.331Z,97260.89
2018-07-14T23:01:00.755Z,97269.47
2018-07-14T23:03:28.162Z,97263.41
2018-07-14T23:05:55.580Z,97262.48
2018-07-14T23:08:23.067Z,97260.91
2018-07-14T23:10:50.838Z,97258.30
2018-07-14T23:13:18.319Z,97262.25
2018-07-14T23:15:45.750Z,97257.72
2018-07-14T23:18:13.279Z,97263.58
2018-07-14T23:20:40.785Z,97270.11
2018-07-14T23:23:08.268Z,97269.50
2018-07-14T23:25:35.812Z,97264.14
2018-07-14T23:28:03.257Z,97266.28
2018-07-14T23:30:30.692Z,97257.95
2018-07-14T23:32:58.298Z,97256.44
2018-07-14T23:35:25.793Z,97255.52
2018-07-14T23:37:53.238Z,97257.16
2018-07-14T23:40:20.679Z,97259.02
2018-07-14T23:42:48.171Z,97256.83
2018-07-14T23:45:15.696Z,97260.02
2018-07-14T23:47:43.124Z,97263.12
2018-07-14T23:50:10.562Z,97259.41
2018-07-14T23:52:38.004Z,97255.42
2018-07-14T23:55:05.442Z,97260.80
2018-07-14T23:57:32.976Z,97259.17
